Time;durP1;ratioP1;P1;durP2;ratioP2;P2;SDS_P1;SDS_P2;PMS_P1;PMS_P2;Temp;Humidity;BMP_temperature;BMP_pressure;BME280_temperature;BME280_humidity;BME280_pressure;Samples;Min_cycle;Max_cycle;Signal;HPM_P1;HPM_P2
2023/11/26 00:01:05;;;;;;;;;;;;;;;0.99;74.47;100503.69;15493484;28;20093;-49
2023/11/26 00:08:38;;;;;;;0.00;0.00;;;;;;;1.12;75.14;100511.19;15492210;28;19922;-52
2023/11/26 00:16:15;;;;;;;0.00;0.00;;;;;;;1.14;74.68;100502.16;15474308;28;20050;-51
2023/11/26 00:23:48;;;;;;;0.00;0.00;;;;;;;1.16;75.31;100515.19;15506487;28;20034;-48
2023/11/26 00:31:29;;;;;;;0.00;0.00;;;;;;;1.19;74.90;100518.38;15492106;28;20065;-49
2023/11/26 00:39:03;;;;;;;0.00;0.00;;;;;;;0.94;76.31;100535.03;15474040;28;20046;-50
2023/11/26 00:46:42;;;;;;;0.00;0.00;;;;;;;1.00;76.72;100534.41;15474734;28;20042;-51
2023/11/26 00:54:17;;;;;;;0.10;0.10;;;;;;;0.89;75.25;100521.47;15473100;28;20153;-49
2023/11/26 01:01:53;;;;;;;0.00;0.00;;;;;;;1.10;76.15;100555.47;15465806;28;20038;-51
2023/11/26 01:09:26;;;;;;;0.00;0.00;;;;;;;1.58;74.36;100568.19;15471568;28;20038;-51
2023/11/26 01:17:01;;;;;;;0.00;0.00;;;;;;;1.28;74.46;100580.91;15471764;28;20038;-52
2023/11/26 01:24:36;;;;;;;0.00;0.00;;;;;;;1.15;75.39;100579.63;15471253;28;20057;-49
2023/11/26 01:32:13;;;;;;;0.00;0.00;;;;;;;1.17;74.74;100582.97;15471300;28;20035;-50
2023/11/26 01:39:53;;;;;;;0.00;0.00;;;;;;;0.86;75.85;100579.88;15476591;28;20047;-52
2023/11/26 01:47:28;;;;;;;0.00;0.00;;;;;;;0.85;75.35;100579.06;15488110;28;20412;-51
2023/11/26 01:55:04;;;;;;;0.00;0.00;;;;;;;1.02;75.64;100595.88;15466483;28;20073;-51
2023/11/26 02:02:41;;;;;;;0.05;0.05;;;;;;;1.10;75.37;100587.19;15598425;22;20499;-46
2023/11/26 02:10:15;;;;;;;0.00;0.00;;;;;;;0.62;77.11;100593.69;15677777;28;20045;-49
2023/11/26 02:17:49;;;;;;;;;;;;;;;0.90;76.10;100595.28;15652698;28;20551;-48
2023/11/26 02:25:29;;;;;;;0.00;0.00;;;;;;;1.15;75.34;100585.75;15652577;28;19935;-48
2023/11/26 02:33:03;;;;;;;0.00;0.00;;;;;;;1.08;75.64;100605.84;15668234;28;20072;-47
2023/11/26 02:40:38;;;;;;;0.00;0.00;;;;;;;1.31;74.33;100621.25;15658052;28;20122;-47
2023/11/26 02:48:11;;;;;;;0.00;0.00;;;;;;;0.88;75.21;100625.47;15661186;28;20490;-49
2023/11/26 02:55:47;;;;;;;0.00;0.00;;;;;;;1.11;75.18;100623.22;15680564;28;20099;-50
2023/11/26 03:03:20;;;;;;;0.00;0.00;;;;;;;1.22;73.90;100623.81;15673096;28;20097;-52
2023/11/26 03:18:49;;;;;;;0.10;0.10;;;;;;;1.12;73.44;100640.72;15644138;28;20183;-51
2023/11/26 03:26:25;;;;;;;0.00;0.00;;;;;;;1.02;73.95;100654.84;15677677;28;20714;-47
2023/11/26 03:33:59;;;;;;;0.00;0.00;;;;;;;0.98;74.38;100650.88;15660262;28;20051;-48
2023/11/26 03:41:34;;;;;;;0.00;0.00;;;;;;;0.65;75.20;100659.41;15658042;28;20041;-51
2023/11/26 03:49:08;;;;;;;0.00;0.00;;;;;;;0.72;76.34;100645.47;15658534;28;20041;-47
2023/11/26 03:56:43;;;;;;;0.00;0.00;;;;;;;1.05;74.34;100652.91;15641436;28;20095;-49
2023/11/26 04:04:18;;;;;;;0.00;0.00;;;;;;;0.61;75.43;100656.25;15659076;28;20062;-49
2023/11/26 04:11:56;;;;;;;0.00;0.00;;;;;;;0.80;75.93;100654.47;15676313;28;20056;-50
2023/11/26 04:19:31;;;;;;;14.73;0.80;;;;;;;0.37;77.35;100672.59;15662539;28;20103;-51
2023/11/26 04:27:06;;;;;;;0.00;0.00;;;;;;;0.84;76.29;100682.22;15676990;28;20041;-48
2023/11/26 04:34:40;;;;;;;0.00;0.00;;;;;;;0.38;76.82;100692.78;15659028;28;20076;-51
2023/11/26 04:42:17;;;;;;;0.00;0.00;;;;;;;1.24;74.63;100693.22;15670062;28;20073;-51
2023/11/26 04:49:55;;;;;;;0.00;0.00;;;;;;;1.24;75.01;100687.09;15653293;28;20076;-48
2023/11/26 04:57:31;;;;;;;0.10;0.10;;;;;;;1.11;75.78;100713.91;15672286;28;20144;-47
2023/11/26 05:05:08;;;;;;;0.00;0.00;;;;;;;0.65;76.57;100710.44;15671243;28;20049;-50
2023/11/26 05:12:44;;;;;;;0.00;0.00;;;;;;;0.67;76.19;100707.66;15651224;28;20463;-47
2023/11/26 05:20:18;;;;;;;0.00;0.00;;;;;;;1.20;74.27;100714.81;15672175;28;20083;-50
2023/11/26 05:27:53;;;;;;;0.00;0.00;;;;;;;0.96;74.08;100716.22;15655076;28;20041;-50
2023/11/26 05:35:27;;;;;;;0.00;0.00;;;;;;;0.01;78.41;100723.59;15671222;28;20385;-51
2023/11/26 05:43:03;;;;;;;0.00;0.00;;;;;;;0.42;78.33;100733.75;15670519;28;20508;-48
2023/11/26 05:50:36;;;;;;;0.00;0.00;;;;;;;0.10;80.03;100741.22;15670845;28;20060;-48
2023/11/26 05:58:13;;;;;;;0.00;0.00;;;;;;;0.34;78.82;100741.56;15652663;28;20107;-52
2023/11/26 06:05:46;;;;;;;0.00;0.00;;;;;;;0.34;79.18;100744.19;15669550;28;20108;-50
2023/11/26 06:13:21;;;;;;;0.00;0.00;;;;;;;0.17;79.85;100745.75;15677171;28;20049;-52
2023/11/26 06:20:55;;;;;;;0.00;0.00;;;;;;;0.32;78.10;100756.69;15674025;28;20047;-50
2023/11/26 06:28:30;;;;;;;;;;;;;;;0.09;78.32;100765.91;15680114;28;20037;-50
2023/11/26 06:36:03;;;;;;;0.00;0.00;;;;;;;0.07;79.35;100774.00;15663839;28;19927;-47
2023/11/26 06:43:38;;;;;;;0.55;0.17;;;;;;;-0.08;79.46;100778.03;15683022;28;20162;-48
2023/11/26 06:51:12;;;;;;;0.00;0.00;;;;;;;0.01;79.09;100784.28;15662084;28;20152;-51
2023/11/26 06:58:47;;;;;;;0.00;0.00;;;;;;;0.13;77.50;100776.03;15679992;28;20056;-49
2023/11/26 07:06:21;;;;;;;0.13;0.13;;;;;;;0.07;77.81;100789.00;15679325;28;20045;-47
2023/11/26 07:13:56;;;;;;;0.38;0.38;;;;;;;0.18;77.07;100797.56;15652684;28;20128;-48
2023/11/26 07:21:30;;;;;;;0.00;0.00;;;;;;;0.12;76.57;100802.59;15676469;28;20041;-48
2023/11/26 07:29:05;;;;;;;0.08;0.08;;;;;;;-0.08;76.75;100813.16;15677964;28;20091;-48
2023/11/26 07:36:39;;;;;;;0.00;0.00;;;;;;;-0.16;76.99;100825.38;15659079;28;20685;-49
2023/11/26 07:44:16;;;;;;;0.35;0.35;;;;;;;-0.30;78.17;100824.81;15659136;28;20041;-46
2023/11/26 07:51:50;;;;;;;0.00;0.00;;;;;;;-0.21;79.28;100814.41;15677070;28;20419;-46
2023/11/26 07:59:25;;;;;;;0.20;0.20;;;;;;;0.15;77.95;100818.16;15709285;22;20087;-54
2023/11/26 08:07:01;;;;;;;0.00;0.00;;;;;;;-0.10;78.27;100823.00;15782140;28;20128;-51
2023/11/26 08:14:42;;;;;;;0.10;0.10;;;;;;;-0.01;78.34;100830.09;15783745;28;20516;-54
2023/11/26 08:22:16;;;;;;;0.00;0.00;;;;;;;0.02;77.64;100830.81;15782864;28;20139;-52
2023/11/26 08:29:50;;;;;;;0.10;0.10;;;;;;;0.48;75.91;100832.69;15802766;28;20044;-52
2023/11/26 08:37:24;;;;;;;0.00;0.00;;;;;;;0.62;73.76;100834.03;15801882;28;20410;-52
2023/11/26 08:45:00;;;;;;;0.00;0.00;;;;;;;1.22;70.60;100834.50;15801471;28;20047;-53
2023/11/26 08:52:34;;;;;;;0.00;0.00;;;;;;;1.38;67.45;100845.25;15801282;28;20036;-54
2023/11/26 09:00:11;;;;;;;0.00;0.00;;;;;;;2.48;63.93;100855.53;15782155;28;20044;-52
2023/11/26 09:07:46;;;;;;;0.00;0.00;;;;;;;3.05;64.78;100857.69;15801921;28;20490;-52
2023/11/26 09:15:25;;;;;;;0.20;0.20;;;;;;;3.23;61.65;100865.56;15763986;28;20036;-53
2023/11/26 09:22:58;;;;;;;0.00;0.00;;;;;;;3.52;58.67;100858.03;15765826;28;20494;-56
2023/11/26 09:30:33;;;;;;;;;;;;;;;5.00;54.80;100861.53;15801119;28;20048;-57
2023/11/26 09:38:06;;;;;;;0.00;0.00;;;;;;;5.89;53.90;100857.63;15801214;28;19920;-57
2023/11/26 09:45:41;;;;;;;;;;;;;;;4.42;54.77;100859.97;15781608;28;20036;-54
2023/11/26 09:53:15;;;;;;;0.00;0.00;;;;;;;3.89;57.32;100855.97;15780477;28;19959;-55
2023/11/26 10:00:51;;;;;;;0.00;0.00;;;;;;;3.17;56.23;100863.53;15780838;28;20033;-53
2023/11/26 10:08:28;;;;;;;0.00;0.00;;;;;;;3.91;54.57;100859.28;15798973;28;20044;-53
2023/11/26 10:16:08;;;;;;;0.00;0.00;;;;;;;3.73;56.04;100870.88;15779048;28;20548;-56
2023/11/26 10:23:44;;;;;;;0.00;0.00;;;;;;;3.71;54.95;100864.06;15798378;28;20052;-53
2023/11/26 10:31:19;;;;;;;0.00;0.00;;;;;;;2.80;57.70;100873.47;15800114;28;20402;-53
2023/11/26 10:38:53;;;;;;;0.00;0.00;;;;;;;2.72;56.89;100878.72;15778760;28;20113;-53
2023/11/26 10:46:32;;;;;;;;;;;;;;;4.79;55.14;100864.75;15790976;28;20064;-54
2023/11/26 10:54:10;;;;;;;0.25;0.25;;;;;;;4.03;54.06;100866.78;15796559;28;20019;-53
2023/11/26 11:01:45;;;;;;;0.00;0.00;;;;;;;3.97;54.90;100858.66;15803589;28;20581;-53
2023/11/26 11:09:28;;;;;;;0.00;0.00;;;;;;;5.18;52.20;100856.84;15806859;28;20734;-55
2023/11/26 11:17:03;;;;;;;0.00;0.00;;;;;;;6.51;48.15;100849.50;15796871;28;20051;-53
2023/11/26 11:24:37;;;;;;;0.00;0.00;;;;;;;5.14;50.24;100855.50;15788003;28;20043;-53
2023/11/26 11:32:11;;;;;;;2.83;1.55;;;;;;;5.50;49.69;100845.22;15806069;28;20063;-57
2023/11/26 11:39:46;;;;;;;0.00;0.00;;;;;;;4.61;53.02;100849.81;15804487;28;20120;-53
2023/11/26 11:47:43;;;;;;;0.15;0.15;;;;;;;5.59;50.10;100845.97;15805175;28;20449;-55
2023/11/26 11:55:33;;;;;;;0.00;0.00;;;;;;;4.02;54.43;100854.50;15775746;28;20447;-52
2023/11/26 12:03:15;;;;;;;0.00;0.00;;;;;;;4.37;52.42;100847.19;15779099;28;20525;-57
2023/11/26 12:10:49;;;;;;;0.00;0.00;;;;;;;3.67;54.29;100852.09;15784412;28;20486;-55
2023/11/26 12:18:24;;;;;;;0.00;0.00;;;;;;;4.05;53.95;100843.53;15765963;28;20052;-55
2023/11/26 12:25:58;;;;;;;0.00;0.00;;;;;;;4.37;53.01;100833.06;15794246;28;20051;-54
2023/11/26 12:33:34;;;;;;;0.00;0.00;;;;;;;3.44;55.22;100833.31;15802931;28;20079;-54
2023/11/26 12:41:08;;;;;;;0.00;0.00;;;;;;;4.04;53.14;100825.94;15803460;28;20082;-53
2023/11/26 12:48:44;;;;;;;0.00;0.00;;;;;;;3.04;57.45;100829.53;15783965;28;20149;-54
2023/11/26 12:56:21;;;;;;;0.10;0.10;;;;;;;3.66;56.02;100829.22;15783956;28;20072;-57
2023/11/26 13:03:56;;;;;;;0.00;0.00;;;;;;;2.40;58.00;100760.13;15783792;28;20102;-55
2023/11/26 13:11:36;;;;;;;0.00;0.00;;;;;;;3.23;57.32;100804.56;15800419;28;20036;-55
2023/11/26 13:19:12;;;;;;;0.00;0.00;;;;;;;2.90;57.58;100804.44;15799126;28;20498;-54
2023/11/26 13:26:46;;;;;;;0.17;0.17;;;;;;;2.49;60.47;100800.72;15800391;28;20430;-56
2023/11/26 13:34:21;;;;;;;0.00;0.00;;;;;;;2.85;59.76;100787.34;15782742;28;20044;-52
2023/11/26 13:41:55;;;;;;;0.00;0.00;;;;;;;2.45;59.43;100788.78;15764508;28;20040;-55
2023/11/26 13:49:30;;;;;;;0.00;0.00;;;;;;;2.56;61.54;100799.09;15801616;28;20028;-54
2023/11/26 13:57:04;;;;;;;0.40;0.40;;;;;;;1.87;62.63;100797.31;15788580;28;20052;-56
2023/11/26 14:04:39;;;;;;;0.00;0.00;;;;;;;2.69;60.84;100796.88;15711181;22;20064;-50
2023/11/26 14:12:15;;;;;;;0.00;0.00;;;;;;;2.59;60.80;100795.31;15669999;28;20033;-50
2023/11/26 14:19:57;;;;;;;0.00;0.00;;;;;;;2.36;61.86;100795.84;15667933;28;20044;-47
2023/11/26 14:27:31;;;;;;;0.63;0.20;;;;;;;2.69;61.49;100790.75;15670623;28;20102;-51
2023/11/26 14:35:08;;;;;;;0.10;0.10;;;;;;;2.75;61.51;100796.25;15677512;28;20048;-50
2023/11/26 14:42:43;;;;;;;0.10;0.10;;;;;;;3.04;59.89;100795.06;15681621;28;20112;-49
2023/11/26 14:50:18;;;;;;;0.20;0.20;;;;;;;3.06;60.62;100793.06;15680975;28;20035;-51
2023/11/26 14:57:52;;;;;;;2.55;1.35;;;;;;;2.74;62.40;100791.09;15681746;28;20033;-48
2023/11/26 15:05:27;;;;;;;;;;;;;;;2.56;62.60;100785.84;15681647;28;20041;-47
2023/11/26 15:13:03;;;;;;;0.00;0.00;;;;;;;2.22;64.27;100770.75;15671861;28;19921;-47
2023/11/26 15:20:38;;;;;;;0.75;0.55;;;;;;;2.19;65.20;100765.78;15659576;28;20036;-49
2023/11/26 15:28:12;;;;;;;0.43;0.43;;;;;;;2.44;63.58;100766.75;15645046;28;20090;-47
2023/11/26 15:35:48;;;;;;;0.05;0.05;;;;;;;2.52;62.58;100760.69;15661140;28;20041;-48
2023/11/26 15:43:22;;;;;;;0.52;0.52;;;;;;;2.55;62.59;100768.31;15678132;28;20094;-50
2023/11/26 15:50:58;;;;;;;0.00;0.00;;;;;;;2.67;62.42;100750.31;15659383;28;20037;-47
2023/11/26 15:58:31;;;;;;;0.08;0.08;;;;;;;2.31;63.71;100758.41;15655520;28;20204;-52
2023/11/26 16:06:07;;;;;;;0.93;0.65;;;;;;;2.54;63.36;100766.66;15676422;28;20041;-48
2023/11/26 16:13:42;;;;;;;11.98;1.85;;;;;;;2.57;63.27;100762.88;15676520;28;20067;-49
2023/11/26 16:21:17;;;;;;;0.00;0.00;;;;;;;2.40;63.61;100759.28;15684058;28;20654;-48
2023/11/26 16:28:51;;;;;;;0.50;0.35;;;;;;;2.18;63.68;100763.28;15660509;28;20045;-52
2023/11/26 16:36:27;;;;;;;0.13;0.13;;;;;;;1.86;65.05;100751.44;15679000;28;20458;-51
2023/11/26 16:44:01;;;;;;;0.00;0.00;;;;;;;1.58;66.79;100753.38;15665318;28;20064;-49
2023/11/26 16:51:36;;;;;;;0.32;0.32;;;;;;;0.88;69.88;100747.84;15658702;28;20112;-48
2023/11/26 16:59:09;;;;;;;1.02;0.47;;;;;;;1.20;69.87;100752.66;15674168;28;20065;-47
2023/11/26 17:06:46;;;;;;;0.38;0.38;;;;;;;1.33;69.82;100736.44;15675855;28;20384;-46
2023/11/26 17:14:19;;;;;;;0.00;0.00;;;;;;;1.52;69.13;100762.75;15675744;28;20598;-48
2023/11/26 17:21:55;;;;;;;1.02;1.02;;;;;;;1.05;71.25;100763.91;15676280;28;20551;-48
2023/11/26 17:29:28;;;;;;;0.30;0.30;;;;;;;1.66;70.51;100753.44;15650531;28;20045;-54
2023/11/26 17:37:03;;;;;;;;;;;;;;;1.77;68.22;100733.84;15658685;28;20453;-47
2023/11/26 17:44:39;;;;;;;0.20;0.20;;;;;;;1.78;68.43;100741.66;15674726;28;19925;-53
2023/11/26 17:52:14;;;;;;;0.73;0.73;;;;;;;0.98;71.75;100743.38;15668986;28;20033;-47
2023/11/26 17:59:49;;;;;;;0.47;0.47;;;;;;;1.50;70.02;100737.44;15672867;28;20119;-49
2023/11/26 18:07:24;;;;;;;1.38;1.17;;;;;;;1.67;68.73;100719.88;15673355;28;20756;-49
2023/11/26 18:14:57;;;;;;;1.00;0.90;;;;;;;1.31;71.21;100713.78;15682942;28;20604;-47
2023/11/26 18:22:33;;;;;;;2.05;0.68;;;;;;;1.75;69.37;100714.66;15682915;28;20041;-48
2023/11/26 18:30:08;;;;;;;0.15;0.15;;;;;;;1.77;68.92;100715.31;15682233;28;20410;-51
2023/11/26 18:37:42;;;;;;;0.43;0.43;;;;;;;1.00;71.67;100724.72;15682080;28;20398;-49
2023/11/26 18:45:17;;;;;;;0.00;0.00;;;;;;;1.24;70.99;100730.25;15680913;28;20438;-49
2023/11/26 18:52:52;;;;;;;0.35;0.35;;;;;;;1.31;71.55;100741.06;15679770;28;20482;-50
2023/11/26 19:00:25;;;;;;;0.77;0.68;;;;;;;1.30;72.58;100733.25;15679877;28;20283;-52
2023/11/26 19:08:00;;;;;;;1.38;0.68;;;;;;;1.64;71.87;100725.50;15679820;28;20527;-48
2023/11/26 19:15:33;;;;;;;0.10;0.10;;;;;;;1.43;72.97;100733.72;15645698;28;20051;-53
2023/11/26 19:23:08;;;;;;;0.55;0.55;;;;;;;1.87;71.76;100724.03;15677484;28;20561;-46
2023/11/26 19:30:41;;;;;;;0.00;0.00;;;;;;;1.68;71.22;100727.69;15627491;28;20053;-48
2023/11/26 19:38:17;;;;;;;0.82;0.80;;;;;;;1.97;70.38;100727.41;15675185;28;20041;-46
2023/11/26 19:45:50;;;;;;;0.10;0.10;;;;;;;2.24;69.70;100739.66;15677947;28;20474;-47
2023/11/26 19:53:25;;;;;;;;;;;;;;;1.61;72.17;100744.31;15677735;28;20127;-48
2023/11/26 20:00:58;;;;;;;0.40;0.40;;;;;;;1.90;71.14;100713.09;15642400;28;19921;-50
2023/11/26 20:08:34;;;;;;;0.20;0.20;;;;;;;1.36;73.40;100706.25;15676725;28;20045;-50
2023/11/26 20:16:12;;;;;;;0.95;0.85;;;;;;;1.57;73.15;100698.81;15659828;28;20044;-47
2023/11/26 20:23:47;;;;;;;0.40;0.40;;;;;;;1.90;71.81;100691.09;15676882;28;20565;-50
2023/11/26 20:31:20;;;;;;;0.40;0.40;;;;;;;1.39;72.65;100698.81;15656817;28;20057;-50
2023/11/26 20:38:56;;;;;;;;;;;;;;;1.69;71.93;100683.53;15671318;28;20052;-49
2023/11/26 20:46:33;;;;;;;5.68;1.02;;;;;;;1.72;71.03;100691.97;15666735;28;20288;-50
2023/11/26 20:54:07;;;;;;;;;;;;;;;1.67;70.93;100690.78;15653991;28;20075;-54
2023/11/26 21:01:41;;;;;;;0.20;0.20;;;;;;;1.63;70.76;100682.34;15672392;28;19994;-47
2023/11/26 21:09:17;;;;;;;0.00;0.00;;;;;;;1.09;72.98;100689.44;15672592;28;20043;-49
2023/11/26 21:16:53;;;;;;;2.20;0.90;;;;;;;1.07;72.18;100687.94;15671709;28;20582;-48
2023/11/26 21:24:27;;;;;;;;;;;;;;;1.17;71.78;100680.78;15654548;28;20300;-53
2023/11/26 21:32:00;;;;;;;0.73;0.73;;;;;;;1.08;71.45;100687.78;15669706;28;19921;-51
2023/11/26 21:39:37;;;;;;;0.00;0.00;;;;;;;0.72;75.17;100682.44;15648458;28;20036;-51
2023/11/26 21:47:13;;;;;;;0.15;0.15;;;;;;;0.94;72.48;100654.78;15670110;28;20386;-50
2023/11/26 21:54:50;;;;;;;0.22;0.22;;;;;;;0.43;74.12;100652.72;15668910;28;20048;-50
2023/11/26 22:02:25;;;;;;;0.00;0.00;;;;;;;0.76;72.77;100662.69;15650550;28;20110;-50
2023/11/26 22:10:00;;;;;;;0.10;0.10;;;;;;;0.95;73.28;100648.50;15670760;28;20496;-55
2023/11/26 22:17:34;;;;;;;0.00;0.00;;;;;;;0.70;73.68;100651.88;15670508;28;20041;-48
2023/11/26 22:25:09;;;;;;;0.00;0.00;;;;;;;1.04;72.18;100645.97;15654118;28;20037;-48
2023/11/26 22:32:43;;;;;;;0.00;0.00;;;;;;;0.86;72.94;100644.13;15671216;28;20130;-47
2023/11/26 22:40:18;;;;;;;0.10;0.10;;;;;;;0.84;73.12;100643.47;15652737;28;20029;-47
2023/11/26 22:47:55;;;;;;;0.00;0.00;;;;;;;0.56;75.16;100658.50;15635924;28;20065;-48
2023/11/26 22:55:30;;;;;;;0.75;0.75;;;;;;;0.81;73.40;100662.25;15657814;28;20045;-51
2023/11/26 23:03:04;;;;;;;0.98;0.93;;;;;;;1.02;72.79;100649.56;15664542;28;20165;-48
2023/11/26 23:10:41;;;;;;;0.30;0.30;;;;;;;0.88;73.05;100643.97;15681568;28;20056;-47
2023/11/26 23:18:15;;;;;;;0.63;0.63;;;;;;;0.96;73.91;100634.31;15680740;28;20041;-47
2023/11/26 23:25:50;;;;;;;0.00;0.00;;;;;;;0.70;73.13;100609.59;15679554;28;20056;-48
2023/11/26 23:33:27;;;;;;;0.00;0.00;;;;;;;1.00;73.45;100616.34;15649065;28;20036;-49
2023/11/26 23:41:03;;;;;;;0.10;0.10;;;;;;;0.84;72.87;100626.75;15678486;28;20087;-51
2023/11/26 23:48:36;;;;;;;0.65;0.50;;;;;;;0.96;73.73;100621.09;15678090;28;20045;-49
2023/11/26 23:56:11;;;;;;;0.10;0.10;;;;;;;0.70;74.26;100615.75;15677125;28;20049;-50
